Decoded Metar for LFLU (VALENCE in FRANCE) (IATA:VAF) | Meteo·Mobile Aviation Weather
aviador You're here:

LFLU Decoded Metar

VALENCE in FRANCE
Report Time2019-09-21 09:00:00
UTC Time2019-09-21 09:12:47
Flight Rules vfr VFR
Wind220° at 07 kt
W.Decomp.*RWY 19: 6.1 kt HW 3.5 kt RCW
Visibility9999 m
Phenomena:N/A
Clouds:N/A
Expected CloudBase > 5,200 ft AGL from Temp-Dew spread
CeilingNone
Temp23°C
Dew Point10°C (44% RH)
AAT20.5°C
QNH1017 hPa
Raw Report
METAR LFLU 210900Z AUTO 22007KT 180V260 CAVOK 23/10 Q1017=

Extra information for LFLU:More info

Metar Taf Metar & Taf Last 4 Metars F.Rules Stats Wind Profile Meteogram Temp Stats Airport Information Weather charts Add Link Nearby VenuesMetar ALERT Operation Metar Decoded Social comments